createdAt,value
2022-11-12T00:00:01.965Z,10.30
2022-11-12T00:00:12.058Z,10.20
2022-11-12T00:00:22.264Z,12.30
2022-11-12T00:00:32.213Z,14.80
2022-11-12T00:00:42.302Z,14.70
2022-11-12T00:00:52.371Z,13.60
2022-11-12T00:01:02.451Z,12.00
2022-11-12T00:01:12.518Z,12.40
2022-11-12T00:01:22.607Z,10.40
2022-11-12T00:01:32.674Z,10.40
2022-11-12T00:01:42.864Z,11.40
2022-11-12T00:01:52.849Z,12.20
2022-11-12T00:02:02.984Z,11.10
2022-11-12T00:02:13.242Z,10.30
2022-11-12T00:02:23.041Z,10.10
2022-11-12T00:02:33.122Z,11.40
2022-11-12T00:02:43.211Z,11.50
2022-11-12T00:02:53.299Z,12.30
2022-11-12T00:03:03.370Z,14.00
2022-11-12T00:03:13.447Z,13.70
2022-11-12T00:03:23.548Z,14.20
2022-11-12T00:03:33.631Z,11.80
2022-11-12T00:03:43.710Z,12.60
2022-11-12T00:03:53.789Z,11.10
2022-11-12T00:04:03.859Z,11.80
2022-11-12T00:04:13.929Z,11.90
2022-11-12T00:04:24.132Z,13.20
2022-11-12T00:04:34.058Z,12.40
2022-11-12T00:04:44.139Z,12.80
2022-11-12T00:04:54.208Z,12.60
2022-11-12T00:05:04.298Z,12.30
2022-11-12T00:05:14.360Z,11.70
2022-11-12T00:05:24.451Z,10.40
2022-11-12T00:05:34.519Z,9.30
2022-11-12T00:05:44.614Z,9.30
2022-11-12T00:05:54.691Z,10.40
2022-11-12T00:06:04.810Z,12.30
2022-11-12T00:06:14.947Z,13.40
2022-11-12T00:06:25.018Z,12.70
2022-11-12T00:06:35.120Z,12.10
2022-11-12T00:06:45.213Z,10.20
2022-11-12T00:06:55.371Z,10.90
2022-11-12T00:07:05.522Z,11.20
2022-11-12T00:07:15.631Z,13.70
2022-11-12T00:07:25.696Z,14.10
2022-11-12T00:07:35.751Z,14.60
2022-11-12T00:07:45.829Z,12.20
2022-11-12T00:07:55.898Z,12.60
2022-11-12T00:08:06.009Z,12.50
2022-11-12T00:08:16.104Z,12.70
2022-11-12T00:08:26.452Z,12.70
2022-11-12T00:08:36.229Z,10.70
2022-11-12T00:08:46.320Z,10.20
2022-11-12T00:08:56.389Z,9.90
2022-11-12T00:09:06.459Z,11.40
2022-11-12T00:09:16.527Z,11.10
2022-11-12T00:09:26.601Z,11.40
2022-11-12T00:09:36.671Z,11.10
2022-11-12T00:09:46.732Z,11.70
2022-11-12T00:09:56.809Z,11.10
2022-11-12T00:10:06.878Z,11.20
2022-11-12T00:10:16.950Z,11.40
2022-11-12T00:10:27.040Z,11.90
2022-11-12T00:10:37.138Z,12.30
2022-11-12T00:10:47.222Z,11.70
2022-11-12T00:10:57.299Z,9.80
2022-11-12T00:11:07.367Z,9.30
2022-11-12T00:11:17.540Z,9.80
2022-11-12T00:11:27.450Z,9.60
2022-11-12T00:11:37.530Z,9.50
2022-11-12T00:11:47.610Z,8.80
2022-11-12T00:11:57.673Z,8.90
2022-11-12T00:12:07.749Z,9.70
2022-11-12T00:12:17.829Z,9.50
2022-11-12T00:12:27.910Z,12.00
2022-11-12T00:12:38.002Z,11.40
2022-11-12T00:12:48.072Z,14.80
2022-11-12T00:12:58.148Z,13.60
2022-11-12T00:13:08.231Z,12.30
2022-11-12T00:13:18.296Z,9.40
2022-11-12T00:13:28.361Z,8.10
2022-11-12T00:13:38.431Z,9.60
2022-11-12T00:13:48.499Z,9.60
2022-11-12T00:13:58.599Z,10.10
2022-11-12T00:14:08.663Z,9.30
2022-11-12T00:14:18.733Z,10.20
2022-11-12T00:14:28.818Z,11.90
2022-11-12T00:14:38.889Z,11.70
2022-11-12T00:14:48.961Z,12.30
2022-11-12T00:14:59.029Z,10.70
2022-11-12T00:15:09.119Z,10.50
2022-11-12T00:15:19.190Z,10.70
2022-11-12T00:15:29.300Z,11.90
2022-11-12T00:15:39.369Z,11.50
2022-11-12T00:15:49.442Z,10.80
2022-11-12T00:15:59.533Z,8.60
2022-11-12T00:16:09.598Z,8.70
2022-11-12T00:16:19.639Z,8.00
2022-11-12T00:16:29.700Z,8.90
2022-11-12T00:16:39.789Z,11.10
2022-11-12T00:16:49.868Z,12.20
2022-11-12T00:16:59.950Z,12.90
2022-11-12T00:17:10.018Z,11.30
2022-11-12T00:17:20.088Z,10.30
2022-11-12T00:17:30.137Z,9.30
2022-11-12T00:17:40.210Z,9.90
2022-11-12T00:17:50.283Z,10.90
2022-11-12T00:18:00.362Z,10.50
2022-11-12T00:18:10.468Z,9.70
2022-11-12T00:18:20.539Z,9.70
2022-11-12T00:18:30.650Z,10.00
2022-11-12T00:18:40.738Z,10.20
2022-11-12T00:18:50.808Z,10.20
2022-11-12T00:19:00.909Z,11.60
2022-11-12T00:19:10.928Z,10.60
2022-11-12T00:19:20.997Z,12.20
2022-11-12T00:19:31.086Z,12.50
2022-11-12T00:19:41.202Z,13.90
2022-11-12T00:19:51.270Z,11.80
2022-11-12T00:20:01.378Z,11.10
2022-11-12T00:20:11.419Z,9.40
2022-11-12T00:20:21.488Z,9.50
2022-11-12T00:20:31.589Z,9.10
2022-11-12T00:20:41.669Z,8.70
2022-11-12T00:20:51.729Z,10.50
2022-11-12T00:21:01.819Z,10.20
2022-11-12T00:21:11.899Z,11.10
2022-11-12T00:21:21.959Z,9.70
2022-11-12T00:21:32.043Z,10.60
2022-11-12T00:21:42.167Z,11.50
2022-11-12T00:21:52.248Z,11.60
2022-11-12T00:22:02.350Z,10.20
2022-11-12T00:22:12.418Z,10.20
2022-11-12T00:22:22.500Z,11.10
2022-11-12T00:22:32.598Z,10.90
2022-11-12T00:22:42.679Z,9.80
2022-11-12T00:22:52.750Z,9.00
2022-11-12T00:23:02.824Z,9.20
2022-11-12T00:23:12.886Z,8.80
2022-11-12T00:23:23.030Z,9.90
2022-11-12T00:23:33.108Z,10.20
2022-11-12T00:23:43.180Z,10.50
2022-11-12T00:23:53.250Z,8.90
2022-11-12T00:24:03.308Z,10.20
2022-11-12T00:24:13.368Z,10.50
2022-11-12T00:24:23.450Z,9.70
2022-11-12T00:24:33.537Z,8.80
2022-11-12T00:24:43.607Z,8.80
2022-11-12T00:24:53.672Z,9.70
2022-11-12T00:25:03.747Z,9.40
2022-11-12T00:25:13.809Z,8.90
2022-11-12T00:25:23.878Z,9.10
2022-11-12T00:25:33.951Z,9.50
2022-11-12T00:25:44.031Z,10.20
2022-11-12T00:25:54.126Z,10.60
2022-11-12T00:26:04.179Z,10.80
2022-11-12T00:26:14.254Z,10.70
2022-11-12T00:26:24.309Z,9.50
2022-11-12T00:26:34.377Z,8.70
2022-11-12T00:26:44.439Z,8.20
2022-11-12T00:26:54.508Z,7.40
2022-11-12T00:27:04.576Z,8.30
2022-11-12T00:27:14.637Z,7.40
2022-11-12T00:27:24.721Z,8.80
2022-11-12T00:27:34.826Z,9.80
2022-11-12T00:27:44.908Z,11.80
2022-11-12T00:27:54.979Z,10.70
2022-11-12T00:28:05.048Z,9.50
2022-11-12T00:28:15.120Z,9.00
2022-11-12T00:28:25.574Z,9.60
2022-11-12T00:28:38.249Z,11.00
2022-11-12T00:28:45.579Z,10.60
2022-11-12T00:28:55.649Z,9.80
2022-11-12T00:29:05.709Z,8.80
2022-11-12T00:29:15.797Z,9.40
2022-11-12T00:29:25.867Z,10.50
2022-11-12T00:29:35.931Z,10.40
2022-11-12T00:29:46.018Z,10.30
2022-11-12T00:29:56.081Z,9.80
2022-11-12T00:30:06.146Z,9.60
2022-11-12T00:30:16.260Z,9.00
2022-11-12T00:30:26.388Z,10.30
2022-11-12T00:30:36.379Z,9.50
2022-11-12T00:30:46.440Z,10.30
2022-11-12T00:30:56.517Z,7.90
2022-11-12T00:31:06.588Z,8.50
2022-11-12T00:31:16.658Z,8.70
2022-11-12T00:31:26.728Z,10.70
2022-11-12T00:31:36.799Z,9.90
2022-11-12T00:31:46.868Z,9.10
2022-11-12T00:31:56.939Z,8.10
2022-11-12T00:32:07.038Z,9.00
2022-11-12T00:32:17.138Z,9.90
2022-11-12T00:32:27.209Z,9.40
2022-11-12T00:32:37.308Z,9.10
2022-11-12T00:32:47.369Z,9.30
2022-11-12T00:32:57.459Z,8.80
2022-11-12T00:33:07.530Z,8.70
2022-11-12T00:33:17.607Z,7.90
2022-11-12T00:33:27.659Z,9.40
2022-11-12T00:33:37.729Z,9.30
2022-11-12T00:33:47.788Z,11.00
2022-11-12T00:33:57.859Z,10.10
2022-11-12T00:34:07.928Z,10.40
2022-11-12T00:34:18.022Z,8.90
2022-11-12T00:34:28.090Z,8.70
2022-11-12T00:34:38.177Z,8.00
2022-11-12T00:34:48.247Z,8.80
2022-11-12T00:35:02.331Z,9.50
2022-11-12T00:35:12.514Z,11.40
2022-11-12T00:35:18.549Z,12.70
2022-11-12T00:35:28.618Z,12.50
2022-11-12T00:35:38.697Z,11.10
2022-11-12T00:35:48.758Z,9.10
2022-11-12T00:35:58.829Z,8.90
2022-11-12T00:36:08.928Z,8.10
2022-11-12T00:36:18.997Z,8.50
2022-11-12T00:36:29.089Z,8.50
2022-11-12T00:36:39.159Z,8.50
2022-11-12T00:36:49.237Z,9.30
2022-11-12T00:36:59.307Z,10.50
2022-11-12T00:37:09.380Z,11.70
2022-11-12T00:37:19.480Z,9.80
2022-11-12T00:37:29.548Z,8.30
2022-11-12T00:37:39.616Z,8.70
2022-11-12T00:37:49.677Z,9.10
2022-11-12T00:37:59.746Z,8.90
2022-11-12T00:38:09.817Z,8.70
2022-11-12T00:38:19.898Z,9.70
2022-11-12T00:38:29.980Z,10.10
2022-11-12T00:38:40.060Z,8.90
2022-11-12T00:38:50.117Z,7.10
2022-11-12T00:39:00.179Z,6.60
2022-11-12T00:39:10.246Z,8.10
2022-11-12T00:39:20.308Z,8.20
2022-11-12T00:39:30.386Z,9.20
2022-11-12T00:39:40.458Z,8.10
2022-11-12T00:39:50.508Z,7.90
2022-11-12T00:40:00.579Z,8.30
2022-11-12T00:40:10.648Z,8.50
2022-11-12T00:40:20.736Z,9.00
2022-11-12T00:40:30.797Z,7.60
2022-11-12T00:40:40.858Z,7.10
2022-11-12T00:40:50.919Z,7.00
2022-11-12T00:41:01.051Z,7.90
2022-11-12T00:41:11.115Z,8.80
2022-11-12T00:41:21.226Z,10.00
2022-11-12T00:41:31.369Z,9.40
2022-11-12T00:41:41.435Z,9.10
2022-11-12T00:41:51.508Z,7.90
2022-11-12T00:42:01.576Z,8.20
2022-11-12T00:42:11.656Z,8.80
2022-11-12T00:42:21.719Z,9.40
2022-11-12T00:42:31.786Z,10.10
2022-11-12T00:42:41.877Z,9.60
2022-11-12T00:42:51.935Z,9.00
2022-11-12T00:43:02.017Z,9.40
2022-11-12T00:43:12.092Z,11.20
2022-11-12T00:43:22.158Z,9.50
2022-11-12T00:43:32.258Z,10.00
2022-11-12T00:43:42.340Z,10.30
2022-11-12T00:43:52.417Z,10.60
2022-11-12T00:44:02.506Z,11.50
2022-11-12T00:44:12.587Z,10.50
2022-11-12T00:44:22.654Z,9.30
2022-11-12T00:44:32.715Z,8.70
2022-11-12T00:44:42.801Z,8.30
2022-11-12T00:44:52.865Z,8.20
2022-11-12T00:45:02.956Z,8.30
2022-11-12T00:45:13.007Z,8.50
2022-11-12T00:45:23.087Z,8.80
2022-11-12T00:45:33.158Z,8.70
2022-11-12T00:45:43.263Z,8.10
2022-11-12T00:45:53.328Z,8.40
2022-11-12T00:46:03.396Z,8.20
2022-11-12T00:46:13.467Z,9.60
2022-11-12T00:46:23.598Z,9.00
2022-11-12T00:46:33.667Z,9.00
2022-11-12T00:46:43.725Z,8.00
2022-11-12T00:46:53.790Z,7.90
2022-11-12T00:47:03.868Z,8.70
2022-11-12T00:47:13.941Z,8.50
2022-11-12T00:47:24.008Z,7.70
2022-11-12T00:47:34.090Z,7.10
2022-11-12T00:47:44.166Z,6.60
2022-11-12T00:47:54.238Z,7.00
2022-11-12T00:48:04.314Z,7.20
2022-11-12T00:48:14.385Z,7.60
2022-11-12T00:48:24.782Z,8.10
2022-11-12T00:48:34.617Z,8.70
2022-11-12T00:48:44.696Z,8.80
2022-11-12T00:48:54.767Z,8.50
2022-11-12T00:49:04.806Z,8.00
2022-11-12T00:49:14.868Z,7.80
2022-11-12T00:49:24.944Z,7.50
2022-11-12T00:49:35.009Z,7.20
2022-11-12T00:49:45.094Z,7.70
2022-11-12T00:49:55.165Z,7.90
2022-11-12T00:50:05.221Z,9.00
2022-11-12T00:50:15.287Z,9.80
2022-11-12T00:50:25.344Z,10.20
2022-11-12T00:50:35.414Z,10.50
2022-11-12T00:50:45.502Z,9.20
2022-11-12T00:50:55.596Z,8.40
2022-11-12T00:51:05.665Z,7.80
2022-11-12T00:51:15.726Z,7.60
2022-11-12T00:51:25.797Z,7.90
2022-11-12T00:51:35.874Z,8.30
2022-11-12T00:51:45.926Z,8.40
2022-11-12T00:51:56.005Z,8.00
2022-11-12T00:52:06.075Z,7.20
2022-11-12T00:52:16.141Z,7.90
2022-11-12T00:52:26.197Z,8.00
2022-11-12T00:52:36.256Z,9.10
2022-11-12T00:52:46.315Z,8.60
2022-11-12T00:52:56.377Z,8.90
2022-11-12T00:53:06.459Z,7.80
2022-11-12T00:53:16.517Z,9.20
2022-11-12T00:53:26.576Z,9.20
2022-11-12T00:53:36.637Z,8.90
2022-11-12T00:53:46.705Z,8.70
2022-11-12T00:53:56.757Z,8.50
2022-11-12T00:54:06.825Z,11.10
2022-11-12T00:54:16.908Z,11.40
2022-11-12T00:54:27.078Z,12.00
2022-11-12T00:54:37.136Z,10.30
2022-11-12T00:54:47.204Z,8.40
2022-11-12T00:54:57.256Z,7.20
2022-11-12T00:55:07.324Z,7.60
2022-11-12T00:55:17.367Z,9.40
2022-11-12T00:55:27.426Z,10.00
2022-11-12T00:55:37.537Z,10.00
2022-11-12T00:55:47.617Z,9.10
2022-11-12T00:55:57.697Z,8.50
2022-11-12T00:56:07.750Z,8.40
2022-11-12T00:56:17.795Z,9.70
2022-11-12T00:56:33.014Z,11.00
2022-11-12T00:56:38.837Z,11.30
2022-11-12T00:56:48.915Z,9.20
2022-11-12T00:56:58.974Z,7.70
2022-11-12T00:57:09.026Z,7.30
2022-11-12T00:57:19.087Z,7.80
2022-11-12T00:57:29.156Z,8.40
2022-11-12T00:57:39.237Z,9.10
2022-11-12T00:57:49.315Z,8.80
2022-11-12T00:57:59.388Z,10.40
2022-11-12T00:58:09.445Z,10.20
2022-11-12T00:58:19.515Z,10.40
2022-11-12T00:58:29.602Z,7.80
2022-11-12T00:58:39.666Z,7.50
2022-11-12T00:58:49.743Z,7.50
2022-11-12T00:58:59.804Z,9.80
2022-11-12T00:59:09.876Z,10.00
2022-11-12T00:59:19.946Z,10.30
2022-11-12T00:59:30.027Z,9.40
2022-11-12T00:59:40.102Z,9.60
2022-11-12T00:59:50.156Z,10.10
2022-11-12T01:00:00.225Z,10.30
2022-11-12T01:00:10.286Z,10.20
2022-11-12T01:00:20.345Z,9.90
2022-11-12T01:00:30.416Z,8.50
2022-11-12T01:00:40.543Z,7.40
2022-11-12T01:00:50.650Z,8.50
2022-11-12T01:01:00.740Z,10.20
2022-11-12T01:01:10.904Z,11.10
2022-11-12T01:01:21.018Z,10.00
2022-11-12T01:01:31.193Z,9.30
2022-11-12T01:01:41.246Z,8.70
2022-11-12T01:01:51.313Z,9.60
2022-11-12T01:02:01.385Z,9.20
2022-11-12T01:02:11.436Z,10.60
2022-11-12T01:02:21.504Z,9.60
2022-11-12T01:02:32.348Z,10.00
2022-11-12T01:02:46.403Z,8.70
2022-11-12T01:02:52.737Z,8.50
2022-11-12T01:03:02.791Z,7.50
2022-11-12T01:03:12.846Z,7.70
2022-11-12T01:03:22.983Z,8.30
2022-11-12T01:03:33.120Z,8.30
2022-11-12T01:03:43.229Z,7.90
2022-11-12T01:03:53.392Z,8.30
2022-11-12T01:04:03.372Z,8.10
2022-11-12T01:04:13.460Z,7.80
2022-11-12T01:04:23.516Z,6.80
2022-11-12T01:04:33.567Z,8.10
2022-11-12T01:04:43.635Z,8.80
2022-11-12T01:04:53.677Z,8.30
2022-11-12T01:05:03.732Z,7.10
2022-11-12T01:05:13.793Z,7.80
2022-11-12T01:05:23.795Z,9.00
2022-11-12T01:05:33.855Z,9.00
2022-11-12T01:05:43.907Z,8.20
2022-11-12T01:05:53.975Z,8.60
2022-11-12T01:06:04.036Z,9.50
2022-11-12T01:06:14.096Z,10.70
2022-11-12T01:06:24.166Z,10.40
2022-11-12T01:06:34.286Z,9.10
2022-11-12T01:06:44.398Z,9.10
2022-11-12T01:06:54.546Z,8.60
2022-11-12T01:07:04.668Z,10.20
2022-11-12T01:07:14.746Z,9.70
2022-11-12T01:07:24.796Z,8.60
2022-11-12T01:07:34.855Z,7.00
2022-11-12T01:07:44.915Z,6.70
2022-11-12T01:07:56.335Z,10.40
2022-11-12T01:08:05.142Z,11.40
2022-11-12T01:08:15.189Z,11.10
2022-11-12T01:08:25.836Z,7.40
2022-11-12T01:08:35.438Z,6.70
2022-11-12T01:08:45.515Z,7.90
2022-11-12T01:08:55.567Z,8.00
2022-11-12T01:09:05.626Z,8.80
2022-11-12T01:09:15.694Z,8.70
2022-11-12T01:09:25.743Z,9.20
2022-11-12T01:09:35.844Z,9.40
2022-11-12T01:09:45.925Z,11.00
2022-11-12T01:09:55.974Z,11.00
2022-11-12T01:10:06.067Z,11.30
2022-11-12T01:10:16.135Z,9.80
2022-11-12T01:10:26.205Z,9.80
2022-11-12T01:10:36.266Z,7.80
2022-11-12T01:10:46.375Z,10.50
2022-11-12T01:10:56.515Z,10.60
2022-11-12T01:11:06.577Z,10.50
2022-11-12T01:11:16.622Z,6.80
2022-11-12T01:11:26.694Z,5.90
2022-11-12T01:11:36.744Z,7.20
2022-11-12T01:11:46.797Z,7.80
2022-11-12T01:11:56.843Z,8.80
2022-11-12T01:12:06.904Z,7.90
2022-11-12T01:12:16.974Z,8.60
2022-11-12T01:12:27.074Z,8.10
2022-11-12T01:12:37.135Z,10.70
2022-11-12T01:12:47.214Z,9.80
2022-11-12T01:12:57.293Z,10.40
2022-11-12T01:13:07.364Z,7.70
2022-11-12T01:13:17.425Z,8.30
2022-11-12T01:13:27.513Z,6.50
2022-11-12T01:13:41.427Z,6.80
2022-11-12T01:13:48.545Z,7.90
2022-11-12T01:13:58.615Z,8.20
2022-11-12T01:14:08.694Z,7.80
2022-11-12T01:14:18.744Z,6.80
2022-11-12T01:14:28.815Z,7.00
2022-11-12T01:14:38.884Z,7.60
2022-11-12T01:14:48.954Z,7.60
2022-11-12T01:14:59.043Z,7.70
2022-11-12T01:15:09.142Z,6.60
2022-11-12T01:15:19.232Z,7.60
2022-11-12T01:15:29.299Z,7.50
2022-11-12T01:15:39.364Z,8.70
2022-11-12T01:15:49.452Z,7.90
2022-11-12T01:15:59.546Z,7.90
2022-11-12T01:16:09.634Z,8.10
2022-11-12T01:16:19.701Z,8.80
2022-11-12T01:16:29.785Z,9.80
2022-11-12T01:16:39.854Z,10.30
2022-11-12T01:16:49.943Z,9.70
2022-11-12T01:17:00.025Z,7.70
2022-11-12T01:17:10.093Z,7.00
2022-11-12T01:17:20.165Z,7.50
2022-11-12T01:17:30.224Z,8.80
2022-11-12T01:17:40.303Z,8.90
2022-11-12T01:17:50.373Z,9.20
2022-11-12T01:18:00.434Z,7.90
2022-11-12T01:18:10.533Z,8.90
2022-11-12T01:18:21.143Z,7.70
2022-11-12T01:18:30.681Z,7.80
2022-11-12T01:18:40.747Z,6.50
2022-11-12T01:18:50.814Z,6.80
2022-11-12T01:19:00.883Z,8.00
2022-11-12T01:19:10.954Z,8.40
2022-11-12T01:19:21.021Z,8.30
2022-11-12T01:19:31.064Z,7.60
2022-11-12T01:19:41.154Z,7.00
2022-11-12T01:19:51.217Z,9.20
2022-11-12T01:20:01.282Z,10.30
2022-11-12T01:20:11.344Z,10.70
2022-11-12T01:20:21.415Z,8.90
2022-11-12T01:20:31.474Z,6.60
2022-11-12T01:20:41.533Z,6.00
2022-11-12T01:20:51.625Z,6.40
2022-11-12T01:21:01.683Z,7.40
2022-11-12T01:21:11.840Z,8.00
2022-11-12T01:21:21.914Z,8.30
2022-11-12T01:21:32.002Z,7.90
2022-11-12T01:21:42.056Z,7.70
2022-11-12T01:21:52.134Z,6.60
2022-11-12T01:22:02.196Z,8.30
2022-11-12T01:22:12.252Z,9.00
2022-11-12T01:22:22.324Z,10.20
2022-11-12T01:22:32.394Z,8.70
2022-11-12T01:22:42.464Z,8.20
2022-11-12T01:22:52.525Z,8.30
2022-11-12T01:23:02.583Z,8.10
2022-11-12T01:23:12.643Z,7.70
2022-11-12T01:23:22.708Z,7.20
2022-11-12T01:23:32.854Z,7.00
2022-11-12T01:23:42.916Z,6.70
2022-11-12T01:23:52.976Z,7.90
2022-11-12T01:24:03.041Z,7.70
2022-11-12T01:24:13.111Z,8.10
2022-11-12T01:24:23.181Z,7.60
2022-11-12T01:24:33.244Z,7.20
2022-11-12T01:24:43.316Z,7.90
2022-11-12T01:24:53.383Z,8.00
2022-11-12T01:25:03.452Z,7.00
2022-11-12T01:25:13.523Z,7.70
2022-11-12T01:25:23.583Z,7.40
2022-11-12T01:25:33.684Z,8.20
2022-11-12T01:25:43.753Z,9.10
2022-11-12T01:25:53.813Z,9.60
2022-11-12T01:26:03.913Z,8.70
2022-11-12T01:26:13.993Z,7.60
2022-11-12T01:26:24.065Z,6.80
2022-11-12T01:26:34.132Z,8.60
2022-11-12T01:26:44.204Z,8.80
2022-11-12T01:26:54.281Z,9.40
2022-11-12T01:27:04.348Z,8.30
2022-11-12T01:27:14.413Z,8.80
2022-11-12T01:27:24.472Z,8.00
2022-11-12T01:27:34.533Z,8.10
2022-11-12T01:27:44.605Z,8.20
2022-11-12T01:27:54.682Z,8.70
2022-11-12T01:28:04.743Z,8.50
2022-11-12T01:28:14.822Z,7.80
2022-11-12T01:28:25.211Z,7.20
2022-11-12T01:28:35.013Z,9.30
2022-11-12T01:28:45.066Z,9.30
2022-11-12T01:28:55.124Z,8.40
2022-11-12T01:29:05.192Z,5.90
2022-11-12T01:29:15.254Z,6.10
2022-11-12T01:29:25.336Z,6.90
2022-11-12T01:29:35.395Z,6.80
2022-11-12T01:29:45.464Z,7.30
2022-11-12T01:29:55.545Z,7.70
2022-11-12T01:30:05.605Z,7.60
2022-11-12T01:30:15.683Z,6.80
2022-11-12T01:30:25.762Z,6.50
2022-11-12T01:30:35.834Z,6.90
2022-11-12T01:30:45.914Z,9.30
2022-11-12T01:30:55.996Z,9.80
2022-11-12T01:31:05.984Z,8.90
2022-11-12T01:31:16.053Z,9.20
2022-11-12T01:31:26.115Z,8.30
2022-11-12T01:31:36.167Z,9.50
2022-11-12T01:31:46.232Z,7.00
2022-11-12T01:31:56.334Z,7.50
2022-11-12T01:32:06.413Z,7.80
2022-11-12T01:32:16.483Z,8.60
2022-11-12T01:32:26.540Z,8.30
2022-11-12T01:32:36.608Z,8.10
2022-11-12T01:32:46.663Z,7.60
2022-11-12T01:32:56.722Z,7.40
2022-11-12T01:33:06.791Z,8.80
2022-11-12T01:33:16.852Z,8.70
2022-11-12T01:33:26.913Z,8.60
2022-11-12T01:33:36.982Z,7.10
2022-11-12T01:33:47.035Z,7.90
2022-11-12T01:33:57.103Z,8.30
2022-11-12T01:34:07.180Z,9.40
2022-11-12T01:34:17.242Z,9.70
2022-11-12T01:34:27.253Z,9.20
2022-11-12T01:34:37.305Z,7.70
2022-11-12T01:34:47.381Z,6.90
2022-11-12T01:34:57.442Z,7.20
2022-11-12T01:35:07.531Z,7.10
2022-11-12T01:35:17.613Z,6.80
2022-11-12T01:35:27.693Z,6.70
2022-11-12T01:35:37.763Z,8.60
2022-11-12T01:35:47.851Z,8.70
2022-11-12T01:35:57.914Z,9.40
2022-11-12T01:36:08.001Z,8.20
2022-11-12T01:36:18.063Z,9.00
2022-11-12T01:36:28.165Z,8.00
2022-11-12T01:36:38.257Z,9.20
2022-11-12T01:36:48.352Z,8.40
2022-11-12T01:36:58.411Z,8.60
2022-11-12T01:37:08.520Z,6.90
2022-11-12T01:37:18.581Z,7.20
2022-11-12T01:37:28.650Z,7.30
2022-11-12T01:37:38.725Z,7.60
2022-11-12T01:37:48.812Z,7.30
2022-11-12T01:37:58.882Z,7.50
2022-11-12T01:38:08.970Z,7.40
2022-11-12T01:38:19.032Z,8.90
2022-11-12T01:38:29.414Z,9.10
2022-11-12T01:38:39.185Z,8.30
2022-11-12T01:38:49.275Z,7.20
2022-11-12T01:38:59.333Z,5.90
2022-11-12T01:39:09.411Z,7.10
2022-11-12T01:39:19.475Z,7.10
2022-11-12T01:39:29.546Z,7.90
2022-11-12T01:39:39.592Z,7.00
2022-11-12T01:39:49.662Z,6.80
2022-11-12T01:39:59.733Z,6.90
2022-11-12T01:40:09.793Z,7.50
2022-11-12T01:40:19.852Z,7.30
2022-11-12T01:40:29.902Z,6.50
2022-11-12T01:40:40.011Z,7.40
2022-11-12T01:40:50.070Z,7.90
2022-11-12T01:41:00.133Z,8.50
2022-11-12T01:41:10.191Z,6.80
2022-11-12T01:41:20.283Z,5.60
2022-11-12T01:41:30.371Z,5.70
2022-11-12T01:41:40.440Z,6.00
2022-11-12T01:41:50.501Z,6.90
2022-11-12T01:42:00.585Z,6.50
2022-11-12T01:42:10.642Z,6.60
2022-11-12T01:42:20.709Z,6.30
2022-11-12T01:42:30.773Z,6.80
2022-11-12T01:42:40.840Z,8.00
2022-11-12T01:42:50.893Z,8.90
2022-11-12T01:43:01.002Z,8.80
2022-11-12T01:43:11.072Z,7.70
2022-11-12T01:43:21.160Z,6.90
2022-11-12T01:43:31.222Z,6.70
2022-11-12T01:43:41.290Z,6.70
2022-11-12T01:43:51.350Z,7.30
2022-11-12T01:44:01.421Z,7.70
2022-11-12T01:44:11.494Z,8.50
2022-11-12T01:44:21.553Z,7.60
2022-11-12T01:44:31.630Z,8.80
2022-11-12T01:44:41.701Z,9.60
2022-11-12T01:44:51.779Z,10.10
2022-11-12T01:45:01.873Z,9.40
2022-11-12T01:45:11.931Z,8.10
2022-11-12T01:45:22.013Z,8.00
2022-11-12T01:45:32.060Z,7.10
2022-11-12T01:45:42.121Z,7.10
2022-11-12T01:45:52.192Z,7.30
2022-11-12T01:46:02.261Z,7.50
2022-11-12T01:46:12.321Z,7.60
2022-11-12T01:46:22.392Z,6.90
2022-11-12T01:46:32.462Z,6.50
2022-11-12T01:46:42.551Z,7.40
2022-11-12T01:46:52.612Z,8.40
2022-11-12T01:47:02.750Z,9.40
2022-11-12T01:47:12.811Z,8.70
2022-11-12T01:47:22.892Z,9.50
2022-11-12T01:47:33.037Z,8.40
2022-11-12T01:47:43.101Z,8.50
2022-11-12T01:47:53.164Z,7.10
2022-11-12T01:48:03.229Z,8.40
2022-11-12T01:48:13.291Z,9.30
2022-11-12T01:48:23.534Z,9.40
2022-11-12T01:48:33.412Z,8.50
2022-11-12T01:48:43.481Z,8.10
2022-11-12T01:48:53.551Z,7.10
2022-11-12T01:49:03.672Z,7.20
2022-11-12T01:49:13.789Z,7.20
2022-11-12T01:49:23.845Z,7.90
2022-11-12T01:49:33.920Z,9.20
2022-11-12T01:49:48.722Z,9.30
2022-11-12T01:49:57.144Z,9.20
2022-11-12T01:50:06.085Z,10.50
2022-11-12T01:50:15.182Z,10.00
2022-11-12T01:50:25.307Z,10.90
2022-11-12T01:50:35.371Z,8.70
2022-11-12T01:50:45.440Z,10.20
2022-11-12T01:50:55.512Z,9.10
2022-11-12T01:51:05.589Z,8.50
2022-11-12T01:51:15.651Z,7.30
2022-11-12T01:51:25.718Z,7.60
2022-11-12T01:51:35.789Z,6.30
2022-11-12T01:51:45.861Z,6.60
2022-11-12T01:51:55.929Z,6.00
2022-11-12T01:52:06.000Z,7.20
2022-11-12T01:52:16.061Z,8.00
2022-11-12T01:52:26.139Z,9.90
2022-11-12T01:52:36.200Z,9.70
2022-11-12T01:52:46.270Z,9.10
2022-11-12T01:52:56.343Z,7.00
2022-11-12T01:53:06.400Z,7.40
2022-11-12T01:53:16.477Z,8.00
2022-11-12T01:53:26.550Z,8.60
2022-11-12T01:53:36.634Z,6.80
2022-11-12T01:53:46.711Z,6.00
2022-11-12T01:53:56.761Z,6.40
2022-11-12T01:54:06.858Z,7.40
2022-11-12T01:54:16.936Z,8.20
2022-11-12T01:54:27.079Z,7.30
2022-11-12T01:54:37.160Z,7.30
2022-11-12T01:54:47.221Z,8.90
2022-11-12T01:54:57.283Z,10.90
2022-11-12T01:55:07.352Z,11.00
2022-11-12T01:55:17.420Z,9.10
2022-11-12T01:55:27.491Z,7.20
2022-11-12T01:55:37.552Z,7.00
2022-11-12T01:55:47.619Z,6.20
2022-11-12T01:55:57.681Z,6.40
2022-11-12T01:56:07.751Z,8.90
2022-11-12T01:56:17.820Z,11.40
2022-11-12T01:56:27.921Z,11.20
2022-11-12T01:56:42.205Z,9.40
2022-11-12T01:56:48.000Z,7.60
2022-11-12T01:56:58.061Z,7.40
2022-11-12T01:57:08.141Z,8.20
2022-11-12T01:57:18.209Z,7.90
2022-11-12T01:57:33.454Z,8.70
2022-11-12T01:57:39.237Z,9.30
2022-11-12T01:57:49.329Z,9.70
2022-11-12T01:57:59.399Z,8.70
2022-11-12T01:58:09.470Z,7.40
2022-11-12T01:58:19.539Z,7.80
2022-11-12T01:58:29.610Z,7.00
2022-11-12T01:58:39.704Z,7.50
2022-11-12T01:58:49.780Z,6.30
2022-11-12T01:58:59.841Z,7.30
2022-11-12T01:59:09.929Z,7.70
2022-11-12T01:59:19.992Z,8.10
2022-11-12T01:59:30.059Z,7.50
2022-11-12T01:59:40.139Z,6.10
2022-11-12T01:59:50.220Z,7.40
2022-11-12T02:00:00.298Z,7.90
2022-11-12T02:00:10.363Z,8.30
2022-11-12T02:00:20.446Z,7.00
2022-11-12T02:00:30.500Z,7.70
2022-11-12T02:00:40.578Z,8.90
2022-11-12T02:00:50.697Z,10.50
2022-11-12T02:01:00.845Z,8.80
2022-11-12T02:01:10.994Z,7.20
2022-11-12T02:01:20.882Z,5.80
2022-11-12T02:01:31.009Z,7.20
2022-11-12T02:01:41.108Z,6.60
2022-11-12T02:01:51.176Z,7.40
2022-11-12T02:02:01.254Z,6.50
2022-11-12T02:02:11.317Z,6.50
2022-11-12T02:02:21.392Z,6.40
2022-11-12T02:02:31.466Z,6.90
2022-11-12T02:02:41.539Z,7.30
2022-11-12T02:02:51.620Z,7.00
2022-11-12T02:03:01.699Z,6.20
2022-11-12T02:03:11.832Z,6.10
2022-11-12T02:03:21.898Z,7.10
2022-11-12T02:03:32.009Z,9.00
2022-11-12T02:03:42.078Z,10.30
2022-11-12T02:03:52.127Z,9.30
2022-11-12T02:04:02.190Z,7.90
2022-11-12T02:04:12.269Z,6.90
2022-11-12T02:04:22.331Z,6.90
2022-11-12T02:04:32.399Z,6.00
2022-11-12T02:04:42.461Z,6.00
2022-11-12T02:04:52.538Z,6.30
2022-11-12T02:05:02.609Z,8.60
2022-11-12T02:05:12.670Z,8.70
2022-11-12T02:05:22.756Z,8.80
2022-11-12T02:05:32.837Z,7.00
2022-11-12T02:05:42.898Z,8.00
2022-11-12T02:05:52.949Z,7.20
2022-11-12T02:06:03.009Z,7.40
2022-11-12T02:06:13.069Z,6.80
2022-11-12T02:06:23.137Z,7.10
2022-11-12T02:06:33.361Z,6.70
2022-11-12T02:06:43.364Z,6.60
2022-11-12T02:06:53.460Z,6.60
2022-11-12T02:07:03.645Z,7.30
2022-11-12T02:07:13.617Z,7.00
2022-11-12T02:07:23.686Z,6.20
2022-11-12T02:07:33.757Z,6.70
2022-11-12T02:07:43.827Z,6.60
2022-11-12T02:07:53.897Z,7.70
2022-11-12T02:08:03.967Z,6.40
2022-11-12T02:08:14.043Z,8.40
2022-11-12T02:08:24.342Z,7.60
2022-11-12T02:08:34.248Z,7.70
2022-11-12T02:08:44.314Z,5.60
2022-11-12T02:08:54.392Z,6.90
2022-11-12T02:09:04.449Z,6.80
2022-11-12T02:09:14.509Z,7.90
2022-11-12T02:09:24.573Z,6.80
2022-11-12T02:09:34.659Z,6.70
2022-11-12T02:09:44.738Z,5.90
2022-11-12T02:09:54.817Z,6.90
2022-11-12T02:10:04.973Z,7.40
2022-11-12T02:10:15.008Z,7.20
2022-11-12T02:10:25.068Z,6.00
2022-11-12T02:10:35.176Z,8.30
2022-11-12T02:10:45.259Z,8.60
2022-11-12T02:10:55.356Z,8.80
2022-11-12T02:11:05.447Z,6.60
2022-11-12T02:11:15.525Z,6.50
2022-11-12T02:11:25.588Z,6.60
2022-11-12T02:11:35.660Z,6.10
2022-11-12T02:11:45.738Z,6.80
2022-11-12T02:11:55.816Z,6.80
2022-11-12T02:12:05.885Z,7.70
2022-11-12T02:12:15.969Z,7.80
2022-11-12T02:12:26.033Z,6.90
2022-11-12T02:12:36.145Z,6.60
2022-11-12T02:12:46.217Z,5.80
2022-11-12T02:12:56.287Z,6.90
2022-11-12T02:13:06.348Z,7.50